createdAt,value
2019-03-29T00:11:47.041Z,10.00
2019-03-29T00:20:56.638Z,10.00
2019-03-29T00:23:46.393Z,10.00
2019-03-29T00:35:56.846Z,10.00
2019-03-29T00:41:56.510Z,10.00
2019-03-29T00:44:57.351Z,9.90
2019-03-29T00:50:47.152Z,10.00
2019-03-29T00:53:31.798Z,10.00
2019-03-29T00:59:15.523Z,9.90
2019-03-29T01:01:59.841Z,10.00
2019-03-29T01:04:44.224Z,9.90
2019-03-29T01:07:28.766Z,9.90
2019-03-29T01:10:13.631Z,9.90
2019-03-29T01:16:10.869Z,9.90
2019-03-29T01:18:55.680Z,9.90
2019-03-29T01:21:41.716Z,9.90
2019-03-29T01:27:43.713Z,9.80
2019-03-29T01:33:43.875Z,9.80
2019-03-29T01:39:43.267Z,9.80
2019-03-29T01:42:48.864Z,9.80
2019-03-29T01:48:45.666Z,9.80
2019-03-29T01:51:29.574Z,9.80
2019-03-29T01:54:14.242Z,9.80
2019-03-29T01:56:58.840Z,9.80
2019-03-29T02:02:50.429Z,9.80
2019-03-29T02:05:34.432Z,9.70
2019-03-29T02:08:35.166Z,9.70
2019-03-29T02:17:48.187Z,9.80
2019-03-29T02:26:46.524Z,9.80
2019-03-29T02:32:38.651Z,9.80
2019-03-29T02:35:29.686Z,9.80
2019-03-29T02:38:14.443Z,9.80
2019-03-29T02:44:16.055Z,9.80
2019-03-29T02:47:13.059Z,9.80
2019-03-29T02:50:03.253Z,9.80
2019-03-29T02:52:50.053Z,9.80
2019-03-29T02:55:40.385Z,9.70
2019-03-29T02:58:30.550Z,9.70
2019-03-29T03:04:19.598Z,9.70
2019-03-29T03:07:08.123Z,9.70
2019-03-29T03:09:52.559Z,9.70
2019-03-29T03:12:37.737Z,9.70
2019-03-29T03:18:37.644Z,9.70
2019-03-29T03:21:42.284Z,9.70
2019-03-29T03:30:44.151Z,9.80
2019-03-29T03:33:29.144Z,9.80
2019-03-29T03:36:19.755Z,9.90
2019-03-29T03:39:09.810Z,9.90
2019-03-29T03:41:54.629Z,9.90
2019-03-29T03:47:51.071Z,9.80
2019-03-29T03:50:40.098Z,9.80
2019-03-29T03:53:29.734Z,9.80
2019-03-29T04:00:04.142Z,9.80
2019-03-29T04:05:56.670Z,9.80
2019-03-29T04:08:45.618Z,9.80
2019-03-29T04:11:19.229Z,9.80
2019-03-29T04:14:10.268Z,9.80
2019-03-29T04:16:55.038Z,9.80
2019-03-29T04:22:31.092Z,9.80
2019-03-29T04:25:16.586Z,9.80
2019-03-29T04:28:03.043Z,9.80
2019-03-29T04:30:48.181Z,9.80
2019-03-29T04:33:33.025Z,9.80
2019-03-29T04:36:19.034Z,9.80
2019-03-29T04:39:05.868Z,9.80
2019-03-29T04:41:51.029Z,9.80
2019-03-29T04:44:34.932Z,9.80
2019-03-29T04:47:23.439Z,9.80
2019-03-29T04:50:10.309Z,9.70
2019-03-29T04:55:57.078Z,9.80
2019-03-29T04:58:41.567Z,9.70
2019-03-29T05:01:33.168Z,9.70
2019-03-29T05:04:21.851Z,9.80
2019-03-29T05:07:06.770Z,9.80
2019-03-29T05:09:50.541Z,9.80
2019-03-29T05:12:34.952Z,9.80
2019-03-29T05:15:08.588Z,9.80
2019-03-29T05:17:55.019Z,9.80
2019-03-29T05:20:40.055Z,9.80
2019-03-29T05:23:25.179Z,9.80
2019-03-29T05:29:10.937Z,9.80
2019-03-29T05:31:55.421Z,9.80
2019-03-29T05:34:39.550Z,9.80
2019-03-29T05:37:25.833Z,9.80
2019-03-29T05:40:10.316Z,9.80
2019-03-29T05:42:54.645Z,9.80
2019-03-29T05:45:38.710Z,9.80
2019-03-29T05:48:23.071Z,9.80
2019-03-29T05:54:18.914Z,9.80
2019-03-29T05:57:02.735Z,9.80
2019-03-29T05:59:47.055Z,9.80
2019-03-29T06:02:33.425Z,9.80
2019-03-29T06:05:06.936Z,9.80
2019-03-29T06:14:09.713Z,9.90
2019-03-29T06:20:05.310Z,10.00
2019-03-29T06:22:49.637Z,10.10
2019-03-29T06:25:33.753Z,10.20
2019-03-29T06:28:19.956Z,10.40
2019-03-29T06:31:10.408Z,10.50
2019-03-29T06:33:54.880Z,10.70
2019-03-29T06:36:39.435Z,10.80
2019-03-29T06:39:24.607Z,10.90
2019-03-29T06:42:14.475Z,11.10
2019-03-29T06:45:02.167Z,11.20
2019-03-29T06:47:48.548Z,11.30
2019-03-29T06:50:32.788Z,11.40
2019-03-29T06:53:21.355Z,11.60
2019-03-29T06:56:05.196Z,11.70
2019-03-29T06:58:51.513Z,11.90
2019-03-29T07:01:42.022Z,12.10
2019-03-29T07:04:26.789Z,12.30
2019-03-29T07:10:18.538Z,12.50
2019-03-29T07:13:03.104Z,12.70
2019-03-29T07:15:52.428Z,12.80
2019-03-29T07:19:00.419Z,13.00
2019-03-29T07:21:45.103Z,13.20
2019-03-29T07:24:29.598Z,13.40
2019-03-29T07:30:01.027Z,13.70
2019-03-29T07:35:53.363Z,13.70
2019-03-29T07:38:42.084Z,13.90
2019-03-29T07:53:52.267Z,14.20
2019-03-29T08:12:10.212Z,14.90
2019-03-29T08:14:54.787Z,14.80
2019-03-29T08:17:41.665Z,14.80
2019-03-29T08:20:43.571Z,14.80
2019-03-29T08:23:39.647Z,15.10
2019-03-29T08:39:00.520Z,15.60
2019-03-29T08:41:44.771Z,15.50
2019-03-29T08:44:31.254Z,15.60
2019-03-29T08:47:17.660Z,15.60
2019-03-29T08:53:12.654Z,15.20
2019-03-29T08:59:17.111Z,15.10
2019-03-29T09:02:12.122Z,15.00
2019-03-29T09:04:59.075Z,15.10
2019-03-29T09:10:53.624Z,14.60
2019-03-29T09:13:38.165Z,14.50
2019-03-29T09:19:49.659Z,14.20
2019-03-29T09:29:04.845Z,15.30
2019-03-29T09:31:49.163Z,15.10
2019-03-29T09:34:39.121Z,15.10
2019-03-29T09:40:31.441Z,15.40
2019-03-29T09:43:16.648Z,15.30
2019-03-29T10:08:48.473Z,17.10
2019-03-29T10:11:38.257Z,17.50
2019-03-29T10:14:22.440Z,17.40
2019-03-29T10:17:10.821Z,17.40
2019-03-29T10:19:55.730Z,17.50
2019-03-29T10:22:40.350Z,17.40
2019-03-29T10:25:30.588Z,17.50
2019-03-29T10:28:15.551Z,17.80
2019-03-29T10:31:00.018Z,17.80
2019-03-29T10:33:45.074Z,18.20
2019-03-29T10:39:18.986Z,18.40
2019-03-29T10:44:50.740Z,18.70
2019-03-29T10:50:45.377Z,18.80
2019-03-29T10:53:36.295Z,18.90
2019-03-29T10:59:28.151Z,19.00
2019-03-29T11:02:13.107Z,19.60
2019-03-29T11:04:58.892Z,19.80
2019-03-29T11:37:02.635Z,19.90
2019-03-29T11:46:05.411Z,19.80
2019-03-29T12:05:12.876Z,19.40
2019-03-29T12:11:18.004Z,19.50
2019-03-29T12:14:08.635Z,19.60
2019-03-29T12:20:03.495Z,19.20
2019-03-29T12:22:53.857Z,19.10
2019-03-29T12:25:43.986Z,19.20
2019-03-29T12:31:44.799Z,18.70
2019-03-29T12:34:48.495Z,18.60
2019-03-29T12:37:38.391Z,18.40
2019-03-29T12:40:28.497Z,18.50
2019-03-29T12:43:13.525Z,18.60
2019-03-29T12:49:14.732Z,18.10
2019-03-29T12:55:14.718Z,18.00
2019-03-29T12:57:49.011Z,17.70
2019-03-29T13:06:49.254Z,17.60
2019-03-29T13:13:00.575Z,17.20
2019-03-29T13:22:34.713Z,18.00
2019-03-29T13:25:46.453Z,18.00
2019-03-29T13:28:34.795Z,18.10
2019-03-29T13:31:21.100Z,18.10
2019-03-29T13:37:08.069Z,17.90
2019-03-29T13:39:52.467Z,17.60
2019-03-29T13:42:37.098Z,17.40
2019-03-29T13:45:22.278Z,17.10
2019-03-29T13:48:06.117Z,16.90
2019-03-29T13:50:50.232Z,17.00
2019-03-29T13:53:36.384Z,16.80
2019-03-29T13:56:20.573Z,16.80
2019-03-29T13:59:07.232Z,17.00
2019-03-29T14:01:52.034Z,16.90
2019-03-29T14:04:40.246Z,16.50
2019-03-29T14:07:24.965Z,16.30
2019-03-29T14:10:10.618Z,16.40
2019-03-29T14:12:55.065Z,16.40
2019-03-29T14:15:40.235Z,16.30
2019-03-29T14:18:25.118Z,16.20
2019-03-29T14:21:09.790Z,16.50
2019-03-29T14:23:54.592Z,16.40
2019-03-29T14:26:39.320Z,16.50
2019-03-29T14:29:24.111Z,16.60
2019-03-29T14:32:08.022Z,16.50
2019-03-29T14:34:52.754Z,16.40
2019-03-29T14:37:36.675Z,16.40
2019-03-29T14:40:21.360Z,16.20
2019-03-29T14:43:05.860Z,16.10
2019-03-29T14:45:50.141Z,16.10
2019-03-29T14:48:34.105Z,16.10
2019-03-29T14:51:18.287Z,16.20
2019-03-29T14:54:02.404Z,16.10
2019-03-29T14:56:48.064Z,16.10
2019-03-29T14:59:32.558Z,16.10
2019-03-29T15:02:16.991Z,16.10
2019-03-29T15:04:51.625Z,16.00
2019-03-29T15:07:35.913Z,16.10
2019-03-29T15:10:26.432Z,16.00
2019-03-29T15:13:24.571Z,16.00
2019-03-29T15:16:09.454Z,16.00
2019-03-29T15:18:54.323Z,16.00
2019-03-29T15:21:39.064Z,16.10
2019-03-29T15:24:24.092Z,16.10
2019-03-29T15:27:08.485Z,16.10
2019-03-29T15:29:52.993Z,16.10
2019-03-29T15:32:36.859Z,16.00
2019-03-29T15:35:21.884Z,16.00
2019-03-29T15:38:06.101Z,16.00
2019-03-29T15:40:50.151Z,16.00
2019-03-29T15:43:23.559Z,15.90
2019-03-29T15:46:08.328Z,15.90
2019-03-29T15:48:52.501Z,15.80
2019-03-29T15:51:42.603Z,15.80
2019-03-29T15:55:14.917Z,15.80
2019-03-29T15:57:59.328Z,15.70
2019-03-29T16:00:43.572Z,15.70
2019-03-29T16:06:33.881Z,15.70
2019-03-29T16:09:18.842Z,15.60
2019-03-29T16:12:03.262Z,15.70
2019-03-29T16:14:48.075Z,15.70
2019-03-29T16:17:32.060Z,15.70
2019-03-29T16:20:17.768Z,15.60
2019-03-29T16:23:02.447Z,15.60
2019-03-29T16:25:46.813Z,15.60
2019-03-29T16:28:31.072Z,15.60
2019-03-29T16:31:15.950Z,15.60
2019-03-29T16:34:00.971Z,15.50
2019-03-29T16:36:47.507Z,15.50
2019-03-29T16:39:32.239Z,15.50
2019-03-29T16:42:16.725Z,15.40
2019-03-29T16:47:45.015Z,15.40
2019-03-29T16:50:29.433Z,15.30
2019-03-29T16:53:14.215Z,15.20
2019-03-29T16:55:48.463Z,15.20
2019-03-29T16:58:32.644Z,15.20
2019-03-29T17:01:19.271Z,15.20
2019-03-29T17:04:04.181Z,15.20
2019-03-29T17:06:48.812Z,15.10
2019-03-29T17:09:33.593Z,15.10
2019-03-29T17:12:18.073Z,15.00
2019-03-29T17:15:02.693Z,14.90
2019-03-29T17:18:08.052Z,14.80
2019-03-29T17:20:53.963Z,14.80
2019-03-29T17:26:10.874Z,14.70
2019-03-29T17:28:56.387Z,14.60
2019-03-29T17:31:29.786Z,14.50
2019-03-29T17:34:14.197Z,14.50
2019-03-29T17:37:00.516Z,14.50
2019-03-29T17:39:52.520Z,14.50
2019-03-29T17:42:26.160Z,14.50
2019-03-29T17:45:10.958Z,14.50
2019-03-29T17:47:54.852Z,14.50
2019-03-29T17:50:38.824Z,14.50
2019-03-29T17:53:25.478Z,14.40
2019-03-29T17:56:10.326Z,14.30
2019-03-29T17:58:54.415Z,14.30
2019-03-29T18:01:39.483Z,14.20
2019-03-29T18:04:24.087Z,14.20
2019-03-29T18:07:07.992Z,13.80
2019-03-29T18:09:52.974Z,13.60
2019-03-29T18:12:43.195Z,13.40
2019-03-29T18:15:28.000Z,13.30
2019-03-29T18:18:13.233Z,13.20
2019-03-29T18:20:58.859Z,13.10
2019-03-29T18:23:43.608Z,13.00
2019-03-29T18:26:34.378Z,12.90
2019-03-29T18:29:20.881Z,12.80
2019-03-29T18:32:04.856Z,12.70
2019-03-29T18:34:49.720Z,12.70
2019-03-29T18:43:00.362Z,12.60
2019-03-29T18:45:45.121Z,12.40
2019-03-29T18:48:30.486Z,12.40
2019-03-29T18:51:14.417Z,12.30
2019-03-29T18:53:58.699Z,12.30
2019-03-29T18:56:42.997Z,12.20
2019-03-29T18:59:27.485Z,12.20
2019-03-29T19:02:12.208Z,12.20
2019-03-29T19:04:56.762Z,12.10
2019-03-29T19:07:42.640Z,12.10
2019-03-29T19:10:26.825Z,12.10
2019-03-29T19:13:11.140Z,12.00
2019-03-29T19:15:55.240Z,12.00
2019-03-29T19:24:09.885Z,12.00
2019-03-29T19:26:53.763Z,11.90
2019-03-29T19:29:38.359Z,11.80
2019-03-29T19:32:22.919Z,11.60
2019-03-29T19:35:09.114Z,11.50
2019-03-29T19:37:53.004Z,11.50
2019-03-29T19:40:37.279Z,11.40
2019-03-29T19:43:21.961Z,11.40
2019-03-29T19:46:06.504Z,11.30
2019-03-29T19:48:50.800Z,11.30
2019-03-29T19:51:37.047Z,11.30
2019-03-29T19:54:21.765Z,11.30
2019-03-29T19:57:06.565Z,11.20
2019-03-29T19:59:51.162Z,11.20
2019-03-29T20:02:35.180Z,11.20
2019-03-29T20:08:32.886Z,11.10
2019-03-29T20:11:06.356Z,11.10
2019-03-29T20:13:57.836Z,11.00
2019-03-29T20:16:42.383Z,11.00
2019-03-29T20:19:26.894Z,11.00
2019-03-29T20:22:11.713Z,10.90
2019-03-29T20:24:56.372Z,10.90
2019-03-29T20:27:29.859Z,10.80
2019-03-29T20:30:14.851Z,10.80
2019-03-29T20:32:59.270Z,10.80
2019-03-29T20:35:43.906Z,10.80
2019-03-29T20:38:27.765Z,10.70
2019-03-29T20:41:12.019Z,10.70
2019-03-29T20:43:56.800Z,10.60
2019-03-29T20:46:40.845Z,10.60
2019-03-29T20:49:25.257Z,10.50
2019-03-29T20:51:58.401Z,10.50
2019-03-29T20:54:42.315Z,10.50
2019-03-29T20:57:28.509Z,10.40
2019-03-29T21:00:13.241Z,10.40
2019-03-29T21:02:57.690Z,10.40
2019-03-29T21:05:43.676Z,10.30
2019-03-29T21:08:28.776Z,10.30
2019-03-29T21:11:13.995Z,10.20
2019-03-29T21:13:58.098Z,10.20
2019-03-29T21:16:46.231Z,10.20
2019-03-29T21:19:30.297Z,10.10
2019-03-29T21:22:14.933Z,10.10
2019-03-29T21:24:58.942Z,10.10
2019-03-29T21:27:43.115Z,10.00
2019-03-29T21:30:27.907Z,10.00
2019-03-29T21:33:14.309Z,9.90
2019-03-29T21:35:58.361Z,9.90
2019-03-29T21:38:42.922Z,9.90
2019-03-29T21:41:26.759Z,9.80
2019-03-29T21:44:10.896Z,9.80
2019-03-29T21:46:56.227Z,9.80
2019-03-29T21:49:40.530Z,9.70
2019-03-29T21:52:26.466Z,9.70
2019-03-29T21:55:10.376Z,9.70
2019-03-29T21:57:54.982Z,9.60
2019-03-29T22:00:43.093Z,9.60
2019-03-29T22:03:27.424Z,9.50
2019-03-29T22:06:11.586Z,9.50
2019-03-29T22:08:55.930Z,9.50
2019-03-29T22:11:40.506Z,9.50
2019-03-29T22:14:25.136Z,9.40
2019-03-29T22:17:09.000Z,9.40
2019-03-29T22:19:53.657Z,9.40
2019-03-29T22:22:37.542Z,9.30
2019-03-29T22:25:21.810Z,9.30
2019-03-29T22:28:05.777Z,9.20
2019-03-29T22:30:51.803Z,9.20
2019-03-29T22:33:35.934Z,9.10
2019-03-29T22:36:20.077Z,9.10
2019-03-29T22:39:05.225Z,9.10
2019-03-29T22:41:51.278Z,9.10
2019-03-29T22:44:35.526Z,9.00
2019-03-29T22:47:21.152Z,9.00
2019-03-29T22:50:05.681Z,9.00
2019-03-29T22:52:54.396Z,8.90
2019-03-29T22:55:39.158Z,8.90
2019-03-29T22:58:23.794Z,8.90
2019-03-29T23:01:10.948Z,8.90
2019-03-29T23:04:03.846Z,8.80
2019-03-29T23:06:48.205Z,8.80
2019-03-29T23:09:32.462Z,8.80
2019-03-29T23:12:17.118Z,8.80
2019-03-29T23:15:02.669Z,8.70
2019-03-29T23:17:49.146Z,8.70
2019-03-29T23:20:34.135Z,8.60
2019-03-29T23:23:20.716Z,8.60
2019-03-29T23:26:05.992Z,8.60
2019-03-29T23:28:50.129Z,8.50
2019-03-29T23:31:34.705Z,8.50
2019-03-29T23:34:20.056Z,8.40
2019-03-29T23:37:03.951Z,8.40
2019-03-29T23:39:48.190Z,8.40
2019-03-29T23:42:32.305Z,8.40
2019-03-29T23:45:18.255Z,8.30
2019-03-29T23:48:03.902Z,8.30
2019-03-29T23:50:37.078Z,8.30
2019-03-29T23:53:21.266Z,8.20
2019-03-29T23:56:06.280Z,8.20
2019-03-29T23:58:51.640Z,8.20
